sensor_id;sensor_type;location;lat;lon;timestamp;temperature;humidity
11532;DHT22;5822;51.000;5.874;2022-12-29T00:00:49;12.60;99.90
11532;DHT22;5822;51.000;5.874;2022-12-29T00:03:15;12.60;99.90
11532;DHT22;5822;51.000;5.874;2022-12-29T00:05:41;12.60;99.90
11532;DHT22;5822;51.000;5.874;2022-12-29T00:08:06;12.60;99.90
11532;DHT22;5822;51.000;5.874;2022-12-29T00:10:33;12.50;99.90
11532;DHT22;5822;51.000;5.874;2022-12-29T00:12:58;12.50;99.90
11532;DHT22;5822;51.000;5.874;2022-12-29T00:15:42;12.50;99.90
11532;DHT22;5822;51.000;5.874;2022-12-29T00:18:08;12.50;99.90
11532;DHT22;5822;51.000;5.874;2022-12-29T00:20:35;12.50;99.90
11532;DHT22;5822;51.000;5.874;2022-12-29T00:23:36;12.50;99.90
11532;DHT22;5822;51.000;5.874;2022-12-29T00:26:20;12.60;99.90
11532;DHT22;5822;51.000;5.874;2022-12-29T00:29:06;12.60;99.90
11532;DHT22;5822;51.000;5.874;2022-12-29T00:31:51;12.70;99.90
11532;DHT22;5822;51.000;5.874;2022-12-29T00:34:35;12.70;99.90
11532;DHT22;5822;51.000;5.874;2022-12-29T00:37:19;12.70;99.90
11532;DHT22;5822;51.000;5.874;2022-12-29T00:40:05;12.70;99.90
11532;DHT22;5822;51.000;5.874;2022-12-29T00:43:06;12.80;99.90
11532;DHT22;5822;51.000;5.874;2022-12-29T00:45:51;12.80;99.90
11532;DHT22;5822;51.000;5.874;2022-12-29T00:48:16;12.80;99.90
11532;DHT22;5822;51.000;5.874;2022-12-29T00:51:02;12.80;99.90
11532;DHT22;5822;51.000;5.874;2022-12-29T00:53:27;12.80;99.90
11532;DHT22;5822;51.000;5.874;2022-12-29T00:55:53;12.90;99.90
11532;DHT22;5822;51.000;5.874;2022-12-29T00:58:19;12.90;99.90
11532;DHT22;5822;51.000;5.874;2022-12-29T01:00:44;12.90;99.90
11532;DHT22;5822;51.000;5.874;2022-12-29T01:03:10;12.80;99.90
11532;DHT22;5822;51.000;5.874;2022-12-29T01:05:36;12.90;99.90
11532;DHT22;5822;51.000;5.874;2022-12-29T01:08:02;12.80;99.90
11532;DHT22;5822;51.000;5.874;2022-12-29T01:10:28;12.80;99.90
11532;DHT22;5822;51.000;5.874;2022-12-29T01:12:54;12.80;99.90
11532;DHT22;5822;51.000;5.874;2022-12-29T01:15:19;12.80;99.90
11532;DHT22;5822;51.000;5.874;2022-12-29T01:17:45;12.80;99.90
11532;DHT22;5822;51.000;5.874;2022-12-29T01:20:11;12.80;99.90
11532;DHT22;5822;51.000;5.874;2022-12-29T01:22:37;12.80;99.90
11532;DHT22;5822;51.000;5.874;2022-12-29T01:25:04;12.80;99.90
11532;DHT22;5822;51.000;5.874;2022-12-29T01:27:30;12.80;99.90
11532;DHT22;5822;51.000;5.874;2022-12-29T01:29:56;12.90;99.90
11532;DHT22;5822;51.000;5.874;2022-12-29T01:32:22;12.80;99.90
11532;DHT22;5822;51.000;5.874;2022-12-29T01:34:47;12.80;99.90
11532;DHT22;5822;51.000;5.874;2022-12-29T01:37:13;12.80;99.90
11532;DHT22;5822;51.000;5.874;2022-12-29T01:39:39;12.80;99.90
11532;DHT22;5822;51.000;5.874;2022-12-29T01:42:05;12.80;99.90
11532;DHT22;5822;51.000;5.874;2022-12-29T01:47:21;12.80;99.90
11532;DHT22;5822;51.000;5.874;2022-12-29T01:49:48;12.80;99.90
11532;DHT22;5822;51.000;5.874;2022-12-29T01:52:13;12.80;99.90
11532;DHT22;5822;51.000;5.874;2022-12-29T01:54:44;12.80;99.90
11532;DHT22;5822;51.000;5.874;2022-12-29T01:57:16;12.90;99.90
11532;DHT22;5822;51.000;5.874;2022-12-29T01:59:48;12.90;99.90
11532;DHT22;5822;51.000;5.874;2022-12-29T02:02:15;12.90;99.90
11532;DHT22;5822;51.000;5.874;2022-12-29T02:04:43;12.90;99.90
11532;DHT22;5822;51.000;5.874;2022-12-29T02:07:18;12.90;99.90
11532;DHT22;5822;51.000;5.874;2022-12-29T02:09:48;12.90;99.90
11532;DHT22;5822;51.000;5.874;2022-12-29T02:12:14;12.90;99.90
11532;DHT22;5822;51.000;5.874;2022-12-29T02:14:40;12.90;99.90
11532;DHT22;5822;51.000;5.874;2022-12-29T02:17:53;12.90;99.90
11532;DHT22;5822;51.000;5.874;2022-12-29T02:34:36;12.90;99.90
11532;DHT22;5822;51.000;5.874;2022-12-29T02:39:23;12.80;99.90
11532;DHT22;5822;51.000;5.874;2022-12-29T02:41:57;12.80;99.90
11532;DHT22;5822;51.000;5.874;2022-12-29T02:47:11;12.90;99.90
11532;DHT22;5822;51.000;5.874;2022-12-29T02:50:01;12.90;99.90
11532;DHT22;5822;51.000;5.874;2022-12-29T02:52:39;12.90;99.90
11532;DHT22;5822;51.000;5.874;2022-12-29T02:55:10;12.80;99.90
11532;DHT22;5822;51.000;5.874;2022-12-29T02:57:37;12.80;99.90
11532;DHT22;5822;51.000;5.874;2022-12-29T03:00:10;12.80;99.90
11532;DHT22;5822;51.000;5.874;2022-12-29T03:10:36;12.80;99.90
11532;DHT22;5822;51.000;5.874;2022-12-29T03:13:12;12.80;99.90
11532;DHT22;5822;51.000;5.874;2022-12-29T03:19:07;12.80;99.90
11532;DHT22;5822;51.000;5.874;2022-12-29T03:21:44;12.80;99.90
11532;DHT22;5822;51.000;5.874;2022-12-29T03:24:41;12.90;99.90
11532;DHT22;5822;51.000;5.874;2022-12-29T03:27:12;13.00;99.90
11532;DHT22;5822;51.000;5.874;2022-12-29T03:29:46;13.00;99.90
11532;DHT22;5822;51.000;5.874;2022-12-29T03:32:13;13.00;99.90
11532;DHT22;5822;51.000;5.874;2022-12-29T03:34:40;12.90;99.90
11532;DHT22;5822;51.000;5.874;2022-12-29T03:37:15;12.90;99.90
11532;DHT22;5822;51.000;5.874;2022-12-29T03:39:42;12.90;99.90
11532;DHT22;5822;51.000;5.874;2022-12-29T03:42:19;12.90;99.90
11532;DHT22;5822;51.000;5.874;2022-12-29T03:44:46;13.00;99.90
11532;DHT22;5822;51.000;5.874;2022-12-29T03:47:13;13.00;99.90
11532;DHT22;5822;51.000;5.874;2022-12-29T03:49:39;13.00;99.90
11532;DHT22;5822;51.000;5.874;2022-12-29T03:52:05;12.90;99.90
11532;DHT22;5822;51.000;5.874;2022-12-29T03:54:31;12.90;99.90
11532;DHT22;5822;51.000;5.874;2022-12-29T03:56:57;12.90;99.90
11532;DHT22;5822;51.000;5.874;2022-12-29T03:59:23;12.90;99.90
11532;DHT22;5822;51.000;5.874;2022-12-29T04:01:49;12.80;99.90
11532;DHT22;5822;51.000;5.874;2022-12-29T04:04:15;12.90;99.90
11532;DHT22;5822;51.000;5.874;2022-12-29T04:06:41;12.90;99.90
11532;DHT22;5822;51.000;5.874;2022-12-29T04:09:07;12.90;99.90
11532;DHT22;5822;51.000;5.874;2022-12-29T04:11:33;12.80;99.90
11532;DHT22;5822;51.000;5.874;2022-12-29T04:13:58;12.90;99.90
11532;DHT22;5822;51.000;5.874;2022-12-29T04:16:24;12.90;99.90
11532;DHT22;5822;51.000;5.874;2022-12-29T04:18:50;12.90;99.90
11532;DHT22;5822;51.000;5.874;2022-12-29T04:21:15;12.90;99.90
11532;DHT22;5822;51.000;5.874;2022-12-29T04:23:41;12.90;99.90
11532;DHT22;5822;51.000;5.874;2022-12-29T04:26:07;12.90;99.90
11532;DHT22;5822;51.000;5.874;2022-12-29T04:28:34;12.90;99.90
11532;DHT22;5822;51.000;5.874;2022-12-29T04:31:01;12.90;99.90
11532;DHT22;5822;51.000;5.874;2022-12-29T04:33:26;13.00;99.90
11532;DHT22;5822;51.000;5.874;2022-12-29T04:35:53;12.90;99.90
11532;DHT22;5822;51.000;5.874;2022-12-29T04:38:20;12.90;99.90
11532;DHT22;5822;51.000;5.874;2022-12-29T04:40:46;13.00;99.90
11532;DHT22;5822;51.000;5.874;2022-12-29T04:43:13;13.00;99.90
11532;DHT22;5822;51.000;5.874;2022-12-29T04:45:43;13.00;99.90
11532;DHT22;5822;51.000;5.874;2022-12-29T04:48:08;13.00;99.90
11532;DHT22;5822;51.000;5.874;2022-12-29T04:50:37;13.00;99.90
11532;DHT22;5822;51.000;5.874;2022-12-29T04:53:02;13.00;99.90
11532;DHT22;5822;51.000;5.874;2022-12-29T04:55:28;13.00;99.90
11532;DHT22;5822;51.000;5.874;2022-12-29T04:57:55;13.00;99.90
11532;DHT22;5822;51.000;5.874;2022-12-29T05:00:20;13.00;99.90
11532;DHT22;5822;51.000;5.874;2022-12-29T05:02:46;13.00;99.90
11532;DHT22;5822;51.000;5.874;2022-12-29T05:05:12;13.00;99.90
11532;DHT22;5822;51.000;5.874;2022-12-29T05:07:37;13.00;99.90
11532;DHT22;5822;51.000;5.874;2022-12-29T05:10:04;13.00;99.90
11532;DHT22;5822;51.000;5.874;2022-12-29T05:12:32;13.10;99.90
11532;DHT22;5822;51.000;5.874;2022-12-29T05:14:57;13.10;99.90
11532;DHT22;5822;51.000;5.874;2022-12-29T05:17:23;13.10;99.90
11532;DHT22;5822;51.000;5.874;2022-12-29T05:19:49;13.00;99.90
11532;DHT22;5822;51.000;5.874;2022-12-29T05:22:14;13.10;99.90
11532;DHT22;5822;51.000;5.874;2022-12-29T05:24:40;13.00;99.90
11532;DHT22;5822;51.000;5.874;2022-12-29T05:27:06;13.00;99.90
11532;DHT22;5822;51.000;5.874;2022-12-29T05:29:31;13.00;99.90
11532;DHT22;5822;51.000;5.874;2022-12-29T05:31:57;13.00;99.90
11532;DHT22;5822;51.000;5.874;2022-12-29T05:34:23;13.00;99.90
11532;DHT22;5822;51.000;5.874;2022-12-29T05:36:48;12.90;99.90
11532;DHT22;5822;51.000;5.874;2022-12-29T05:39:14;13.00;99.90
11532;DHT22;5822;51.000;5.874;2022-12-29T05:41:39;12.90;99.90
11532;DHT22;5822;51.000;5.874;2022-12-29T05:44:05;12.90;99.90
11532;DHT22;5822;51.000;5.874;2022-12-29T05:46:31;12.90;99.90
11532;DHT22;5822;51.000;5.874;2022-12-29T05:48:57;12.90;99.90
11532;DHT22;5822;51.000;5.874;2022-12-29T05:51:22;12.90;99.90
11532;DHT22;5822;51.000;5.874;2022-12-29T05:53:48;12.90;99.90
11532;DHT22;5822;51.000;5.874;2022-12-29T05:56:14;12.90;99.90
11532;DHT22;5822;51.000;5.874;2022-12-29T05:58:39;12.90;99.90
11532;DHT22;5822;51.000;5.874;2022-12-29T06:01:05;12.90;99.90
11532;DHT22;5822;51.000;5.874;2022-12-29T06:03:31;12.90;99.90
11532;DHT22;5822;51.000;5.874;2022-12-29T06:05:56;12.80;99.90
11532;DHT22;5822;51.000;5.874;2022-12-29T06:08:22;12.90;99.90
11532;DHT22;5822;51.000;5.874;2022-12-29T06:10:47;12.90;99.90
11532;DHT22;5822;51.000;5.874;2022-12-29T06:13:13;12.80;99.90
11532;DHT22;5822;51.000;5.874;2022-12-29T06:15:39;12.80;99.90
11532;DHT22;5822;51.000;5.874;2022-12-29T06:18:04;12.90;99.90
11532;DHT22;5822;51.000;5.874;2022-12-29T06:20:30;12.90;99.90
11532;DHT22;5822;51.000;5.874;2022-12-29T06:22:55;12.90;99.90
11532;DHT22;5822;51.000;5.874;2022-12-29T06:25:21;12.90;99.90
11532;DHT22;5822;51.000;5.874;2022-12-29T06:27:47;12.90;99.90
11532;DHT22;5822;51.000;5.874;2022-12-29T06:30:12;12.90;99.90
11532;DHT22;5822;51.000;5.874;2022-12-29T06:32:38;12.90;99.90
11532;DHT22;5822;51.000;5.874;2022-12-29T06:35:05;12.80;99.90
11532;DHT22;5822;51.000;5.874;2022-12-29T06:37:33;12.80;99.90
11532;DHT22;5822;51.000;5.874;2022-12-29T06:39:59;12.80;99.90
11532;DHT22;5822;51.000;5.874;2022-12-29T06:42:25;12.80;99.90
11532;DHT22;5822;51.000;5.874;2022-12-29T06:44:51;12.70;99.90
11532;DHT22;5822;51.000;5.874;2022-12-29T06:47:17;12.70;99.90
11532;DHT22;5822;51.000;5.874;2022-12-29T06:49:43;12.70;99.90
11532;DHT22;5822;51.000;5.874;2022-12-29T06:52:09;12.80;99.90
11532;DHT22;5822;51.000;5.874;2022-12-29T06:54:35;12.80;99.90
11532;DHT22;5822;51.000;5.874;2022-12-29T06:57:01;12.70;99.90
11532;DHT22;5822;51.000;5.874;2022-12-29T06:59:26;12.70;99.90
11532;DHT22;5822;51.000;5.874;2022-12-29T07:01:52;12.70;99.90
11532;DHT22;5822;51.000;5.874;2022-12-29T07:04:18;12.70;99.90
11532;DHT22;5822;51.000;5.874;2022-12-29T07:06:44;12.70;99.90
11532;DHT22;5822;51.000;5.874;2022-12-29T07:09:09;12.70;99.90
11532;DHT22;5822;51.000;5.874;2022-12-29T07:11:36;12.70;99.90
11532;DHT22;5822;51.000;5.874;2022-12-29T07:14:02;12.70;99.90
11532;DHT22;5822;51.000;5.874;2022-12-29T07:16:27;12.70;99.90
11532;DHT22;5822;51.000;5.874;2022-12-29T07:18:54;12.60;99.90
11532;DHT22;5822;51.000;5.874;2022-12-29T07:21:20;12.60;99.90
11532;DHT22;5822;51.000;5.874;2022-12-29T07:23:46;12.70;99.90
11532;DHT22;5822;51.000;5.874;2022-12-29T07:26:13;12.70;99.90
11532;DHT22;5822;51.000;5.874;2022-12-29T07:28:39;12.70;99.90
11532;DHT22;5822;51.000;5.874;2022-12-29T07:31:16;12.70;99.90
11532;DHT22;5822;51.000;5.874;2022-12-29T07:33:42;12.70;99.90
11532;DHT22;5822;51.000;5.874;2022-12-29T07:36:09;12.60;99.90
11532;DHT22;5822;51.000;5.874;2022-12-29T07:38:35;12.70;99.90
11532;DHT22;5822;51.000;5.874;2022-12-29T07:41:00;12.70;99.90
11532;DHT22;5822;51.000;5.874;2022-12-29T07:43:26;12.70;99.90
11532;DHT22;5822;51.000;5.874;2022-12-29T07:45:51;12.70;99.90
11532;DHT22;5822;51.000;5.874;2022-12-29T07:48:17;12.70;99.90
11532;DHT22;5822;51.000;5.874;2022-12-29T07:50:43;12.70;99.90
11532;DHT22;5822;51.000;5.874;2022-12-29T07:53:09;12.70;99.90
11532;DHT22;5822;51.000;5.874;2022-12-29T07:55:34;12.60;99.90
11532;DHT22;5822;51.000;5.874;2022-12-29T07:58:00;12.60;99.90
11532;DHT22;5822;51.000;5.874;2022-12-29T08:00:26;12.50;99.90
11532;DHT22;5822;51.000;5.874;2022-12-29T08:02:51;12.50;99.90
11532;DHT22;5822;51.000;5.874;2022-12-29T08:05:17;12.50;99.90
11532;DHT22;5822;51.000;5.874;2022-12-29T08:07:44;12.50;99.90
11532;DHT22;5822;51.000;5.874;2022-12-29T08:10:11;12.50;99.90
11532;DHT22;5822;51.000;5.874;2022-12-29T08:12:40;12.50;99.90
11532;DHT22;5822;51.000;5.874;2022-12-29T08:15:08;12.60;99.90
11532;DHT22;5822;51.000;5.874;2022-12-29T08:17:35;12.50;99.90
11532;DHT22;5822;51.000;5.874;2022-12-29T08:20:01;12.60;99.90
11532;DHT22;5822;51.000;5.874;2022-12-29T08:22:26;12.60;99.90
11532;DHT22;5822;51.000;5.874;2022-12-29T08:24:52;12.60;99.90
11532;DHT22;5822;51.000;5.874;2022-12-29T08:27:18;12.50;99.90
11532;DHT22;5822;51.000;5.874;2022-12-29T08:29:44;12.50;99.90
11532;DHT22;5822;51.000;5.874;2022-12-29T08:32:10;12.50;99.90
11532;DHT22;5822;51.000;5.874;2022-12-29T08:34:36;12.50;99.90
11532;DHT22;5822;51.000;5.874;2022-12-29T08:37:02;12.50;99.90
11532;DHT22;5822;51.000;5.874;2022-12-29T08:39:27;12.50;99.90
11532;DHT22;5822;51.000;5.874;2022-12-29T08:41:53;12.50;99.90
11532;DHT22;5822;51.000;5.874;2022-12-29T08:44:19;12.40;99.90
11532;DHT22;5822;51.000;5.874;2022-12-29T08:46:45;12.50;99.90
11532;DHT22;5822;51.000;5.874;2022-12-29T08:49:10;12.40;99.90
11532;DHT22;5822;51.000;5.874;2022-12-29T08:51:36;12.40;99.90
11532;DHT22;5822;51.000;5.874;2022-12-29T08:54:02;12.40;99.90
11532;DHT22;5822;51.000;5.874;2022-12-29T08:56:28;12.50;99.90
11532;DHT22;5822;51.000;5.874;2022-12-29T08:58:54;12.50;99.90
11532;DHT22;5822;51.000;5.874;2022-12-29T09:01:20;12.50;99.90
11532;DHT22;5822;51.000;5.874;2022-12-29T09:03:46;12.50;99.90
11532;DHT22;5822;51.000;5.874;2022-12-29T09:06:13;12.50;99.90
11532;DHT22;5822;51.000;5.874;2022-12-29T09:08:39;12.50;99.90
11532;DHT22;5822;51.000;5.874;2022-12-29T09:11:16;12.50;99.90
11532;DHT22;5822;51.000;5.874;2022-12-29T09:13:42;12.50;99.90
11532;DHT22;5822;51.000;5.874;2022-12-29T09:16:08;12.50;99.90
11532;DHT22;5822;51.000;5.874;2022-12-29T09:18:34;12.50;99.90
11532;DHT22;5822;51.000;5.874;2022-12-29T09:21:01;12.50;99.90
11532;DHT22;5822;51.000;5.874;2022-12-29T09:23:28;12.50;99.90
11532;DHT22;5822;51.000;5.874;2022-12-29T09:25:54;12.50;99.90
11532;DHT22;5822;51.000;5.874;2022-12-29T09:28:20;12.50;99.90
11532;DHT22;5822;51.000;5.874;2022-12-29T09:30:46;12.50;99.90
11532;DHT22;5822;51.000;5.874;2022-12-29T09:33:12;12.50;99.90
11532;DHT22;5822;51.000;5.874;2022-12-29T09:35:45;12.40;99.90
11532;DHT22;5822;51.000;5.874;2022-12-29T09:38:15;12.50;99.90
11532;DHT22;5822;51.000;5.874;2022-12-29T09:40:41;12.50;99.90
11532;DHT22;5822;51.000;5.874;2022-12-29T09:48:30;12.60;99.90
11532;DHT22;5822;51.000;5.874;2022-12-29T09:51:01;12.50;99.90
11532;DHT22;5822;51.000;5.874;2022-12-29T09:53:35;12.40;99.90
11532;DHT22;5822;51.000;5.874;2022-12-29T09:56:03;12.40;99.90
11532;DHT22;5822;51.000;5.874;2022-12-29T09:58:39;12.40;99.90
11532;DHT22;5822;51.000;5.874;2022-12-29T10:01:26;12.40;99.90
11532;DHT22;5822;51.000;5.874;2022-12-29T10:03:56;12.40;99.90
11532;DHT22;5822;51.000;5.874;2022-12-29T10:06:49;12.40;99.90
11532;DHT22;5822;51.000;5.874;2022-12-29T10:15:18;12.40;99.90
11532;DHT22;5822;51.000;5.874;2022-12-29T10:18:01;12.40;99.90
11532;DHT22;5822;51.000;5.874;2022-12-29T10:20:38;12.40;99.90
11532;DHT22;5822;51.000;5.874;2022-12-29T10:23:25;12.40;99.90
11532;DHT22;5822;51.000;5.874;2022-12-29T10:25:55;12.40;99.90
11532;DHT22;5822;51.000;5.874;2022-12-29T10:28:24;12.40;99.90
11532;DHT22;5822;51.000;5.874;2022-12-29T10:30:56;12.30;99.90
11532;DHT22;5822;51.000;5.874;2022-12-29T10:33:32;12.40;99.90
11532;DHT22;5822;51.000;5.874;2022-12-29T10:36:10;12.40;99.90
11532;DHT22;5822;51.000;5.874;2022-12-29T10:38:46;12.40;99.90
11532;DHT22;5822;51.000;5.874;2022-12-29T10:43:51;12.40;99.90
11532;DHT22;5822;51.000;5.874;2022-12-29T10:46:23;12.50;99.90
11532;DHT22;5822;51.000;5.874;2022-12-29T10:48:50;12.50;99.90
11532;DHT22;5822;51.000;5.874;2022-12-29T10:51:22;12.40;99.90
11532;DHT22;5822;51.000;5.874;2022-12-29T10:56:43;12.50;99.90
11532;DHT22;5822;51.000;5.874;2022-12-29T10:59:23;12.40;99.90
11532;DHT22;5822;51.000;5.874;2022-12-29T11:04:55;12.50;99.90
11532;DHT22;5822;51.000;5.874;2022-12-29T11:07:23;12.50;99.90
11532;DHT22;5822;51.000;5.874;2022-12-29T11:09:48;12.50;99.90
11532;DHT22;5822;51.000;5.874;2022-12-29T11:12:29;12.50;99.90
11532;DHT22;5822;51.000;5.874;2022-12-29T11:15:02;12.60;99.90
11532;DHT22;5822;51.000;5.874;2022-12-29T11:17:52;12.60;99.90
11532;DHT22;5822;51.000;5.874;2022-12-29T11:20:38;12.60;99.90
11532;DHT22;5822;51.000;5.874;2022-12-29T11:23:40;12.70;99.90
11532;DHT22;5822;51.000;5.874;2022-12-29T11:26:11;12.70;99.90
11532;DHT22;5822;51.000;5.874;2022-12-29T11:28:39;12.70;99.90
11532;DHT22;5822;51.000;5.874;2022-12-29T11:31:07;12.70;99.90
11532;DHT22;5822;51.000;5.874;2022-12-29T11:33:35;12.80;99.90
11532;DHT22;5822;51.000;5.874;2022-12-29T11:36:15;12.80;99.90
11532;DHT22;5822;51.000;5.874;2022-12-29T11:39:16;12.80;99.90
11532;DHT22;5822;51.000;5.874;2022-12-29T11:41:52;12.70;99.90
11532;DHT22;5822;51.000;5.874;2022-12-29T11:44:19;12.70;99.90
11532;DHT22;5822;51.000;5.874;2022-12-29T11:46:48;12.70;99.90
11532;DHT22;5822;51.000;5.874;2022-12-29T11:49:20;12.80;99.90
11532;DHT22;5822;51.000;5.874;2022-12-29T11:51:49;12.70;99.90
11532;DHT22;5822;51.000;5.874;2022-12-29T11:54:29;12.70;99.90
11532;DHT22;5822;51.000;5.874;2022-12-29T11:56:57;12.70;99.90
11532;DHT22;5822;51.000;5.874;2022-12-29T12:02:32;12.80;99.90
11532;DHT22;5822;51.000;5.874;2022-12-29T12:05:17;12.80;99.90
11532;DHT22;5822;51.000;5.874;2022-12-29T12:07:55;12.80;99.90
11532;DHT22;5822;51.000;5.874;2022-12-29T12:16:21;12.80;99.90
11532;DHT22;5822;51.000;5.874;2022-12-29T12:18:49;12.80;99.90
11532;DHT22;5822;51.000;5.874;2022-12-29T12:32:24;12.70;99.90
11532;DHT22;5822;51.000;5.874;2022-12-29T12:34:51;12.70;99.90
11532;DHT22;5822;51.000;5.874;2022-12-29T12:43:37;12.80;99.90
11532;DHT22;5822;51.000;5.874;2022-12-29T12:59:56;12.80;99.90
11532;DHT22;5822;51.000;5.874;2022-12-29T13:02:41;12.70;99.90
11532;DHT22;5822;51.000;5.874;2022-12-29T13:13:21;12.80;99.90
11532;DHT22;5822;51.000;5.874;2022-12-29T13:29:35;12.80;99.90
11532;DHT22;5822;51.000;5.874;2022-12-29T13:34:56;12.80;99.90
11532;DHT22;5822;51.000;5.874;2022-12-29T13:37:27;12.80;99.90
11532;DHT22;5822;51.000;5.874;2022-12-29T13:40:11;12.80;99.90
11532;DHT22;5822;51.000;5.874;2022-12-29T13:42:38;12.80;99.90
11532;DHT22;5822;51.000;5.874;2022-12-29T13:45:14;12.80;99.90
11532;DHT22;5822;51.000;5.874;2022-12-29T13:50:23;12.80;99.90
11532;DHT22;5822;51.000;5.874;2022-12-29T13:53:15;12.70;99.90
11532;DHT22;5822;51.000;5.874;2022-12-29T13:56:14;12.80;99.90
11532;DHT22;5822;51.000;5.874;2022-12-29T14:01:43;12.90;99.90
11532;DHT22;5822;51.000;5.874;2022-12-29T14:04:21;12.80;99.90
11532;DHT22;5822;51.000;5.874;2022-12-29T14:06:58;12.80;99.90
11532;DHT22;5822;51.000;5.874;2022-12-29T14:09:45;12.80;99.90
11532;DHT22;5822;51.000;5.874;2022-12-29T14:15:16;12.80;99.90
11532;DHT22;5822;51.000;5.874;2022-12-29T14:20:50;12.70;99.90
11532;DHT22;5822;51.000;5.874;2022-12-29T14:28:36;12.80;99.90
11532;DHT22;5822;51.000;5.874;2022-12-29T14:36:52;12.70;99.90
11532;DHT22;5822;51.000;5.874;2022-12-29T14:39:41;12.60;99.90
11532;DHT22;5822;51.000;5.874;2022-12-29T14:44:56;12.60;99.90
11532;DHT22;5822;51.000;5.874;2022-12-29T14:50:12;12.50;99.90
11532;DHT22;5822;51.000;5.874;2022-12-29T14:52:56;12.40;99.90
11532;DHT22;5822;51.000;5.874;2022-12-29T14:55:47;12.30;99.90
11532;DHT22;5822;51.000;5.874;2022-12-29T14:58:35;12.20;99.90
11532;DHT22;5822;51.000;5.874;2022-12-29T15:03:48;12.20;99.90
11532;DHT22;5822;51.000;5.874;2022-12-29T15:06:18;12.20;99.90
11532;DHT22;5822;51.000;5.874;2022-12-29T15:14:03;12.10;99.90
11532;DHT22;5822;51.000;5.874;2022-12-29T15:16:33;12.30;99.90
11532;DHT22;5822;51.000;5.874;2022-12-29T15:19:01;12.30;99.90
11532;DHT22;5822;51.000;5.874;2022-12-29T15:21:32;12.30;99.90
11532;DHT22;5822;51.000;5.874;2022-12-29T15:23:59;12.30;99.90
11532;DHT22;5822;51.000;5.874;2022-12-29T15:26:37;12.30;99.90
11532;DHT22;5822;51.000;5.874;2022-12-29T15:29:03;12.30;99.90
11532;DHT22;5822;51.000;5.874;2022-12-29T15:31:30;12.30;99.90
11532;DHT22;5822;51.000;5.874;2022-12-29T15:34:09;12.20;99.90
11532;DHT22;5822;51.000;5.874;2022-12-29T15:36:40;12.20;99.90
11532;DHT22;5822;51.000;5.874;2022-12-29T15:39:39;12.10;99.90
11532;DHT22;5822;51.000;5.874;2022-12-29T15:42:18;12.10;99.90
11532;DHT22;5822;51.000;5.874;2022-12-29T15:44:44;12.20;99.90
11532;DHT22;5822;51.000;5.874;2022-12-29T15:49:42;12.10;99.90
11532;DHT22;5822;51.000;5.874;2022-12-29T15:52:09;12.10;99.90
11532;DHT22;5822;51.000;5.874;2022-12-29T15:54:36;12.00;99.90
11532;DHT22;5822;51.000;5.874;2022-12-29T15:57:02;12.10;99.90
11532;DHT22;5822;51.000;5.874;2022-12-29T15:59:30;12.00;99.90
11532;DHT22;5822;51.000;5.874;2022-12-29T16:01:58;12.00;99.90
11532;DHT22;5822;51.000;5.874;2022-12-29T16:04:26;12.10;99.90
11532;DHT22;5822;51.000;5.874;2022-12-29T16:12:06;12.10;99.90
11532;DHT22;5822;51.000;5.874;2022-12-29T16:17:03;12.10;99.90
11532;DHT22;5822;51.000;5.874;2022-12-29T16:19:36;12.00;99.90
11532;DHT22;5822;51.000;5.874;2022-12-29T16:22:10;11.90;99.90
11532;DHT22;5822;51.000;5.874;2022-12-29T16:24:39;11.90;99.90
11532;DHT22;5822;51.000;5.874;2022-12-29T16:29:30;12.00;99.90
11532;DHT22;5822;51.000;5.874;2022-12-29T16:31:58;12.00;99.90
11532;DHT22;5822;51.000;5.874;2022-12-29T16:34:43;12.00;99.90
11532;DHT22;5822;51.000;5.874;2022-12-29T16:37:34;12.00;99.90
11532;DHT22;5822;51.000;5.874;2022-12-29T16:42:49;12.00;99.90
11532;DHT22;5822;51.000;5.874;2022-12-29T16:48:28;11.90;99.90
11532;DHT22;5822;51.000;5.874;2022-12-29T16:50:36;11.90;99.90
11532;DHT22;5822;51.000;5.874;2022-12-29T16:53:03;11.70;99.90
11532;DHT22;5822;51.000;5.874;2022-12-29T16:55:29;11.50;99.90
11532;DHT22;5822;51.000;5.874;2022-12-29T16:57:55;11.40;99.90
11532;DHT22;5822;51.000;5.874;2022-12-29T17:00:31;11.30;99.90
11532;DHT22;5822;51.000;5.874;2022-12-29T17:03:01;11.30;99.90
11532;DHT22;5822;51.000;5.874;2022-12-29T17:05:27;11.30;99.90
11532;DHT22;5822;51.000;5.874;2022-12-29T17:07:52;11.30;99.90
11532;DHT22;5822;51.000;5.874;2022-12-29T17:10:18;11.30;99.90
11532;DHT22;5822;51.000;5.874;2022-12-29T17:12:47;11.30;99.90
11532;DHT22;5822;51.000;5.874;2022-12-29T17:15:20;11.30;99.90
11532;DHT22;5822;51.000;5.874;2022-12-29T17:17:47;11.20;99.90
11532;DHT22;5822;51.000;5.874;2022-12-29T17:20:28;11.20;99.90
11532;DHT22;5822;51.000;5.874;2022-12-29T17:22:54;11.20;99.90
11532;DHT22;5822;51.000;5.874;2022-12-29T17:25:25;11.30;99.90
11532;DHT22;5822;51.000;5.874;2022-12-29T17:28:04;11.40;99.90
11532;DHT22;5822;51.000;5.874;2022-12-29T17:30:32;11.30;99.90
11532;DHT22;5822;51.000;5.874;2022-12-29T17:33:05;11.30;99.90
11532;DHT22;5822;51.000;5.874;2022-12-29T17:35:33;11.30;99.90
11532;DHT22;5822;51.000;5.874;2022-12-29T17:37:58;11.30;99.90
11532;DHT22;5822;51.000;5.874;2022-12-29T17:40:31;11.30;99.90
11532;DHT22;5822;51.000;5.874;2022-12-29T17:42:58;11.20;99.90
11532;DHT22;5822;51.000;5.874;2022-12-29T17:45:29;11.20;99.90
11532;DHT22;5822;51.000;5.874;2022-12-29T17:47:55;11.20;99.90
11532;DHT22;5822;51.000;5.874;2022-12-29T17:50:26;11.20;99.90
11532;DHT22;5822;51.000;5.874;2022-12-29T17:52:56;11.10;99.90
11532;DHT22;5822;51.000;5.874;2022-12-29T17:55:23;11.30;99.90
11532;DHT22;5822;51.000;5.874;2022-12-29T17:57:49;11.30;99.90
11532;DHT22;5822;51.000;5.874;2022-12-29T18:00:17;11.30;99.90
11532;DHT22;5822;51.000;5.874;2022-12-29T18:02:43;11.20;99.90
11532;DHT22;5822;51.000;5.874;2022-12-29T18:05:18;11.30;99.90
11532;DHT22;5822;51.000;5.874;2022-12-29T18:07:44;11.20;99.90
11532;DHT22;5822;51.000;5.874;2022-12-29T18:10:10;11.20;99.90
11532;DHT22;5822;51.000;5.874;2022-12-29T18:12:47;11.10;99.90
11532;DHT22;5822;51.000;5.874;2022-12-29T18:15:28;11.10;99.90
11532;DHT22;5822;51.000;5.874;2022-12-29T18:18:01;11.10;99.90
11532;DHT22;5822;51.000;5.874;2022-12-29T18:20:28;11.10;99.90
11532;DHT22;5822;51.000;5.874;2022-12-29T18:22:53;11.00;99.90
11532;DHT22;5822;51.000;5.874;2022-12-29T18:28:10;11.00;99.90
11532;DHT22;5822;51.000;5.874;2022-12-29T18:30:36;11.00;99.90
11532;DHT22;5822;51.000;5.874;2022-12-29T18:33:02;11.00;99.90
11532;DHT22;5822;51.000;5.874;2022-12-29T18:35:42;11.00;99.90
11532;DHT22;5822;51.000;5.874;2022-12-29T18:38:09;11.00;99.90
11532;DHT22;5822;51.000;5.874;2022-12-29T18:40:36;11.10;99.90
11532;DHT22;5822;51.000;5.874;2022-12-29T18:43:02;11.10;99.90
11532;DHT22;5822;51.000;5.874;2022-12-29T18:45:30;11.00;99.90
11532;DHT22;5822;51.000;5.874;2022-12-29T18:47:56;11.10;99.90
11532;DHT22;5822;51.000;5.874;2022-12-29T18:50:22;11.00;99.90
11532;DHT22;5822;51.000;5.874;2022-12-29T18:52:48;11.10;99.90
11532;DHT22;5822;51.000;5.874;2022-12-29T18:55:20;11.10;99.90
11532;DHT22;5822;51.000;5.874;2022-12-29T18:57:47;11.10;99.90